Terminal Aerodrome Forecast
Issued by NWS

Home | Current Version | Previous Version | Text Only | Print | Product List | Glossary Off
Versions: 1 2 3 4 5 6 7 8 9 10 11 12 13 14 15 16 17 18 19 20 21

000
FTUS43 KABR 260100 AAA
TAFATY
TAF AMD
KATY 260127Z 2601/2624 VRB05KT P6SM OVC020
     FM260700 23014KT P6SM BKN100
     FM261200 31013KT P6SM BKN250=

USA.gov is the U.S. government's official web portal to all federal, state and local government web resources and services.